createdAt,value
2019-04-06T00:00:38.633Z,280.18
2019-04-06T00:02:07.353Z,280.18
2019-04-06T00:03:36.070Z,280.18
2019-04-06T00:05:04.807Z,280.18
2019-04-06T00:06:33.591Z,280.18
2019-04-06T00:08:03.191Z,280.19
2019-04-06T00:09:31.915Z,280.2
2019-04-06T00:11:00.633Z,280.2
2019-04-06T00:12:29.432Z,280.2
2019-04-06T00:13:58.150Z,280.21
2019-04-06T00:15:26.957Z,280.2
2019-04-06T00:16:55.675Z,280.21
2019-04-06T00:18:24.478Z,280.21
2019-04-06T00:19:54.151Z,280.22
2019-04-06T00:21:24.631Z,280.23
2019-04-06T00:22:53.515Z,280.23
2019-04-06T00:24:22.321Z,280.24
2019-04-06T00:25:51.432Z,280.24
2019-04-06T00:27:20.155Z,280.25
2019-04-06T00:28:48.873Z,280.25
2019-04-06T00:30:17.593Z,280.25
2019-04-06T00:31:47.192Z,280.25
2019-04-06T00:33:16.873Z,280.26
2019-04-06T00:34:46.554Z,280.27
2019-04-06T00:36:15.828Z,280.27
2019-04-06T00:37:44.551Z,280.29
2019-04-06T00:39:13.364Z,280.32
2019-04-06T00:40:42.232Z,280.34
2019-04-06T00:42:11.037Z,280.34
2019-04-06T00:43:40.313Z,280.33
2019-04-06T00:45:09.121Z,280.32
2019-04-06T00:46:38.239Z,280.33
2019-04-06T00:48:06.950Z,280.34
2019-04-06T00:49:35.680Z,280.34
2019-04-06T00:51:04.395Z,280.34
2019-04-06T00:52:33.199Z,280.33
2019-04-06T00:54:03.360Z,280.33
2019-04-06T00:55:32.151Z,280.34
2019-04-06T00:57:01.040Z,280.34
2019-04-06T00:58:29.749Z,280.34
2019-04-06T00:59:58.630Z,280.34
2019-04-06T01:01:27.359Z,280.35
2019-04-06T01:02:56.870Z,280.35
2019-04-06T01:04:26.471Z,280.35
2019-04-06T01:05:56.470Z,280.35
2019-04-06T01:07:28.244Z,280.35
2019-04-06T01:08:57.193Z,280.35
2019-04-06T01:10:25.944Z,280.35
2019-04-06T01:11:54.755Z,280.35
2019-04-06T01:13:23.590Z,280.35
2019-04-06T01:14:52.390Z,280.34
2019-04-06T01:16:21.120Z,280.34
2019-04-06T01:17:50.555Z,280.34
2019-04-06T01:19:19.271Z,280.33
2019-04-06T01:20:47.997Z,280.33
2019-04-06T01:22:16.712Z,280.33
2019-04-06T01:23:45.442Z,280.33
2019-04-06T01:25:14.153Z,280.33
2019-04-06T01:26:42.953Z,280.33
2019-04-06T01:28:11.751Z,280.33
2019-04-06T01:29:40.471Z,280.35
2019-04-06T01:31:09.354Z,280.36
2019-04-06T01:32:38.950Z,280.36
2019-04-06T01:34:07.669Z,280.38
2019-04-06T01:35:36.471Z,280.38
2019-04-06T01:37:05.197Z,280.37
2019-04-06T01:38:33.911Z,280.37
2019-04-06T01:40:02.713Z,280.38
2019-04-06T01:41:31.760Z,280.4
2019-04-06T01:43:00.631Z,280.4
2019-04-06T01:44:29.430Z,280.39
2019-04-06T01:45:58.151Z,280.4
2019-04-06T01:47:26.955Z,280.41
2019-04-06T01:48:55.830Z,280.42
2019-04-06T01:50:24.630Z,280.41
2019-04-06T01:51:53.592Z,280.41
2019-04-06T01:53:22.310Z,280.42
2019-04-06T01:54:51.912Z,280.43
2019-04-06T01:56:23.753Z,280.44
2019-04-06T01:57:53.357Z,280.43
2019-04-06T01:59:23.111Z,280.42
2019-04-06T02:00:51.830Z,280.41
2019-04-06T02:02:20.550Z,280.41
2019-04-06T02:03:49.353Z,280.4
2019-04-06T02:05:19.199Z,280.4
2019-04-06T02:06:47.992Z,280.4
2019-04-06T02:08:16.712Z,280.39
2019-04-06T02:09:45.436Z,280.39
2019-04-06T02:11:15.034Z,280.4
2019-04-06T02:12:43.841Z,280.41
2019-04-06T02:14:12.711Z,280.42
2019-04-06T02:15:41.512Z,280.43
2019-04-06T02:17:11.118Z,280.43
2019-04-06T02:18:39.918Z,280.43
2019-04-06T02:20:09.594Z,280.43
2019-04-06T02:21:39.708Z,280.44
2019-04-06T02:23:08.554Z,280.45
2019-04-06T02:24:38.315Z,280.46
2019-04-06T02:26:07.031Z,280.48
2019-04-06T02:27:35.757Z,280.47
2019-04-06T02:29:04.713Z,280.47
2019-04-06T02:30:33.518Z,280.49
2019-04-06T02:32:03.035Z,280.49
2019-04-06T02:33:32.398Z,280.49
2019-04-06T02:35:02.159Z,280.49
2019-04-06T02:36:30.957Z,280.49
2019-04-06T02:37:59.905Z,280.49
2019-04-06T02:39:29.035Z,280.48
2019-04-06T02:40:57.917Z,280.49
2019-04-06T02:42:26.715Z,280.49
2019-04-06T02:43:56.635Z,280.49
2019-04-06T02:45:25.360Z,280.48
2019-04-06T02:46:54.079Z,280.49
2019-04-06T02:48:22.880Z,280.49
2019-04-06T02:49:51.759Z,280.48
2019-04-06T02:51:21.550Z,280.48
2019-04-06T02:52:52.162Z,280.49
2019-04-06T02:54:22.080Z,280.49
2019-04-06T02:55:51.039Z,280.49
2019-04-06T02:57:20.806Z,280.49
2019-04-06T02:58:50.888Z,280.5
2019-04-06T03:00:19.844Z,280.5
2019-04-06T03:01:49.612Z,280.49
2019-04-06T03:03:19.519Z,280.49
2019-04-06T03:04:48.319Z,280.48
2019-04-06T03:06:17.252Z,280.48
2019-04-06T03:07:46.086Z,280.47
2019-04-06T03:09:16.891Z,280.47
2019-04-06T03:10:46.726Z,280.46
2019-04-06T03:12:17.277Z,280.46
2019-04-06T03:13:46.083Z,280.46
2019-04-06T03:15:14.887Z,280.46
2019-04-06T03:16:43.763Z,280.46
2019-04-06T03:18:12.475Z,280.46
2019-04-06T03:19:41.638Z,280.46
2019-04-06T03:21:10.602Z,280.45
2019-04-06T03:22:39.440Z,280.45
2019-04-06T03:24:09.314Z,280.45
2019-04-06T03:25:38.165Z,280.44
2019-04-06T03:27:07.925Z,280.44
2019-04-06T03:28:36.882Z,280.43
2019-04-06T03:30:05.881Z,280.43
2019-04-06T03:31:34.726Z,280.42
2019-04-06T03:33:04.086Z,280.42
2019-04-06T03:34:33.516Z,280.42
2019-04-06T03:36:03.768Z,280.41
2019-04-06T03:37:33.041Z,280.41
2019-04-06T03:39:02.962Z,280.4
2019-04-06T03:40:31.847Z,280.41
2019-04-06T03:42:00.648Z,280.41
2019-04-06T03:43:29.926Z,280.41
2019-04-06T03:44:58.719Z,280.41
2019-04-06T03:46:28.318Z,280.41
2019-04-06T03:47:57.271Z,280.41
2019-04-06T03:49:26.080Z,280.4
2019-04-06T03:50:56.641Z,280.39
2019-04-06T03:52:25.610Z,280.38
2019-04-06T03:53:56.640Z,280.38
2019-04-06T03:55:26.470Z,280.38
2019-04-06T03:56:55.310Z,280.37
2019-04-06T04:02:22.520Z,280.36
2019-04-06T04:03:51.269Z,280.36
2019-04-06T04:05:20.153Z,280.35
2019-04-06T04:06:49.067Z,280.35
2019-04-06T04:08:18.149Z,280.35
2019-04-06T04:09:46.949Z,280.34
2019-04-06T04:11:16.045Z,280.34
2019-04-06T04:12:45.429Z,280.33
2019-04-06T04:14:14.546Z,280.3
2019-04-06T04:15:43.476Z,280.28
2019-04-06T04:17:12.309Z,280.3
2019-04-06T04:18:41.408Z,280.3
2019-04-06T04:20:10.233Z,280.3
2019-04-06T04:21:38.960Z,280.3
2019-04-06T04:23:07.834Z,280.3
2019-04-06T04:24:38.287Z,280.3
2019-04-06T04:26:07.988Z,280.31
2019-04-06T04:27:36.709Z,280.31
2019-04-06T04:29:05.508Z,280.31
2019-04-06T04:30:38.906Z,280.31
2019-04-06T04:32:07.756Z,280.31
2019-04-06T04:33:36.789Z,280.3
2019-04-06T04:35:05.830Z,280.29
2019-04-06T04:36:34.629Z,280.29
2019-04-06T04:38:03.352Z,280.28
2019-04-06T04:39:35.109Z,280.28
2019-04-06T04:41:03.848Z,280.27
2019-04-06T04:42:32.948Z,280.28
2019-04-06T04:44:01.792Z,280.28
2019-04-06T04:45:31.111Z,280.27
2019-04-06T04:47:00.158Z,280.28
2019-04-06T04:48:29.029Z,280.3
2019-04-06T04:49:58.235Z,280.29
2019-04-06T04:51:27.191Z,280.3
2019-04-06T04:52:56.386Z,280.28
2019-04-06T04:54:25.187Z,280.27
2019-04-06T04:55:53.907Z,280.27
2019-04-06T04:57:23.507Z,280.26
2019-04-06T04:58:52.242Z,280.26
2019-04-06T05:00:21.042Z,280.26
2019-04-06T05:01:49.989Z,280.25
2019-04-06T05:03:19.057Z,280.26
2019-04-06T05:04:48.349Z,280.28
2019-04-06T05:06:17.426Z,280.29
2019-04-06T05:07:46.224Z,280.3
2019-04-06T05:09:15.507Z,280.29
2019-04-06T05:10:44.759Z,280.29
2019-04-06T05:12:13.586Z,280.31
2019-04-06T05:13:43.417Z,280.31
2019-04-06T05:15:14.068Z,280.32
2019-04-06T05:16:42.867Z,280.32
2019-04-06T05:18:12.467Z,280.33
2019-04-06T05:19:41.226Z,280.31
2019-04-06T05:21:11.430Z,280.31
2019-04-06T05:22:40.393Z,280.3
2019-04-06T05:24:09.191Z,280.3
2019-04-06T05:25:38.227Z,280.3
2019-04-06T05:27:07.269Z,280.3
2019-04-06T05:28:36.890Z,280.29
2019-04-06T05:30:05.989Z,280.3
2019-04-06T05:31:35.273Z,280.3
2019-04-06T05:33:04.080Z,280.32
2019-04-06T05:34:33.749Z,280.33
2019-04-06T05:36:03.509Z,280.33
2019-04-06T05:37:32.325Z,280.33
2019-04-06T05:39:01.592Z,280.34
2019-04-06T05:40:30.310Z,280.35
2019-04-06T05:41:59.035Z,280.35
2019-04-06T05:43:27.910Z,280.35
2019-04-06T05:44:56.638Z,280.34
2019-04-06T05:46:25.508Z,280.34
2019-04-06T05:47:54.309Z,280.35
2019-04-06T05:49:23.028Z,280.35
2019-04-06T05:50:51.832Z,280.34
2019-04-06T05:52:20.712Z,280.35
2019-04-06T05:53:49.430Z,280.35
2019-04-06T05:55:18.281Z,280.36
2019-04-06T05:56:47.254Z,280.38
2019-04-06T05:58:16.155Z,280.4
2019-04-06T05:59:46.071Z,280.41
2019-04-06T06:01:16.396Z,280.42
2019-04-06T06:02:46.709Z,280.44
2019-04-06T06:04:15.829Z,280.45
2019-04-06T06:05:46.246Z,280.47
2019-04-06T06:07:15.992Z,280.47
2019-04-06T06:08:44.713Z,280.48
2019-04-06T06:10:13.433Z,280.48
2019-04-06T06:11:43.111Z,280.5
2019-04-06T06:13:11.835Z,280.5
2019-04-06T06:14:40.666Z,280.51
2019-04-06T06:16:11.834Z,280.53
2019-04-06T06:17:41.513Z,280.54
2019-04-06T06:19:10.952Z,280.55
2019-04-06T06:20:39.758Z,280.56
2019-04-06T06:22:08.554Z,280.54
2019-04-06T06:23:37.350Z,280.56
2019-04-06T06:25:06.461Z,280.55
2019-04-06T06:26:35.272Z,280.59
2019-04-06T06:28:13.639Z,280.61
2019-04-06T06:29:44.558Z,280.63
2019-04-06T06:31:14.634Z,280.64
2019-04-06T06:32:44.793Z,280.65
2019-04-06T06:34:13.662Z,280.66
2019-04-06T06:35:43.525Z,280.67
2019-04-06T06:37:12.310Z,280.69
2019-04-06T06:38:41.159Z,280.69
2019-04-06T06:40:10.554Z,280.68
2019-04-06T06:41:42.715Z,280.68
2019-04-06T06:43:11.912Z,280.7
2019-04-06T06:44:40.957Z,280.71
2019-04-06T06:46:09.919Z,280.73
2019-04-06T06:47:38.837Z,280.75
2019-04-06T06:49:07.843Z,280.75
2019-04-06T06:50:36.634Z,280.78
2019-04-06T06:52:05.349Z,280.8
2019-04-06T06:53:34.172Z,280.82
2019-04-06T06:55:04.311Z,280.85
2019-04-06T06:56:33.299Z,280.87
2019-04-06T06:58:02.261Z,280.9
2019-04-06T06:59:32.075Z,280.92
2019-04-06T07:01:03.059Z,280.96
2019-04-06T07:02:35.305Z,281
2019-04-06T07:04:04.542Z,281.03
2019-04-06T07:05:33.429Z,281.07
2019-04-06T07:07:03.072Z,281.1
2019-04-06T07:08:31.847Z,281.13
2019-04-06T07:10:10.230Z,281.14
2019-04-06T07:11:39.113Z,281.16
2019-04-06T07:13:08.710Z,281.15
2019-04-06T07:14:37.431Z,281.14
2019-04-06T07:16:06.726Z,281.17
2019-04-06T07:17:35.537Z,281.24
2019-04-06T07:19:06.400Z,281.28
2019-04-06T07:20:35.115Z,281.33
2019-04-06T07:22:04.079Z,281.34
2019-04-06T07:23:32.999Z,281.39
2019-04-06T07:25:01.833Z,281.42
2019-04-06T07:26:31.837Z,281.41
2019-04-06T07:28:00.555Z,281.38
2019-04-06T07:29:29.592Z,281.39
2019-04-06T07:30:58.312Z,281.4
2019-04-06T07:32:27.590Z,281.46
2019-04-06T08:49:25.183Z,284.63
2019-04-06T08:50:54.221Z,284.68
2019-04-06T08:52:23.239Z,284.56
2019-04-06T08:53:52.063Z,284.57
2019-04-06T08:55:21.903Z,284.74
2019-04-06T08:56:52.538Z,284.82
2019-04-06T08:58:21.743Z,284.91
2019-04-06T08:59:51.990Z,285
2019-04-06T09:01:21.255Z,284.98
2019-04-06T09:02:50.223Z,284.93
2019-04-06T09:04:19.022Z,284.97
2019-04-06T09:05:48.854Z,285.01
2019-04-06T09:07:18.701Z,285.1
2019-04-06T09:08:47.422Z,285.21
2019-04-06T09:10:16.141Z,285.25
2019-04-06T09:11:44.950Z,285.28
2019-04-06T09:13:15.329Z,285.4
2019-04-06T09:14:44.223Z,285.39
2019-04-06T09:16:13.901Z,285.37
2019-04-06T09:17:43.580Z,285.36
2019-04-06T09:19:13.101Z,285.34
2019-04-06T09:20:43.658Z,285.44
2019-04-06T09:22:12.860Z,285.47
2019-04-06T09:23:42.583Z,285.52
2019-04-06T09:25:11.419Z,285.54
2019-04-06T09:26:41.158Z,285.61
2019-04-06T09:28:10.059Z,285.61
2019-04-06T09:29:38.780Z,285.55
2019-04-06T09:31:07.661Z,285.64
2019-04-06T09:32:37.345Z,285.69
2019-04-06T09:34:07.500Z,285.72
2019-04-06T09:35:36.224Z,285.75
2019-04-06T09:37:05.218Z,285.82
2019-04-06T09:38:34.060Z,285.9
2019-04-06T09:40:03.101Z,285.92
2019-04-06T09:41:32.699Z,285.97
2019-04-06T09:43:01.500Z,286.03
2019-04-06T09:44:30.300Z,286.07
2019-04-06T09:45:59.099Z,286.11
2019-04-06T09:47:29.090Z,286.15
2019-04-06T09:48:58.060Z,286.18
2019-04-06T09:50:26.859Z,286.2
2019-04-06T09:51:55.670Z,286.23
2019-04-06T09:53:24.459Z,286.33
2019-04-06T09:54:54.066Z,286.44
2019-04-06T09:56:23.178Z,286.52
2019-04-06T09:57:52.938Z,286.57
2019-04-06T09:59:33.941Z,286.66
2019-04-06T10:01:06.838Z,286.72
2019-04-06T10:02:36.055Z,286.77
2019-04-06T10:04:04.774Z,286.77
2019-04-06T10:05:33.651Z,286.75
2019-04-06T10:07:02.838Z,286.83
2019-04-06T10:08:32.041Z,286.95
2019-04-06T10:10:00.856Z,287.01
2019-04-06T10:11:29.811Z,287.07
2019-04-06T10:12:59.413Z,287.04
2019-04-06T10:14:28.321Z,287.1
2019-04-06T10:15:57.331Z,287.17
2019-04-06T10:17:26.292Z,287.15
2019-04-06T10:18:55.088Z,287.18
2019-04-06T10:20:26.850Z,287.32
2019-04-06T10:22:45.746Z,287.32
2019-04-06T10:24:14.931Z,287.3
2019-04-06T10:25:44.018Z,287.27
2019-04-06T10:27:12.941Z,287.3
2019-04-06T10:28:41.807Z,287.31
2019-04-06T10:30:10.530Z,287.39
2019-04-06T10:31:39.246Z,287.47
2019-04-06T10:33:09.726Z,287.56
2019-04-06T10:34:39.647Z,287.7
2019-04-06T10:36:08.672Z,287.78
2019-04-06T10:37:37.488Z,287.82
2019-04-06T10:39:07.171Z,287.88
2019-04-06T10:40:36.101Z,287.95
2019-04-06T10:42:06.035Z,288.01
2019-04-06T10:43:35.807Z,288.08
2019-04-06T10:45:04.783Z,288.07
2019-04-06T10:46:34.007Z,288.12
2019-04-06T10:48:03.085Z,288.18
2019-04-06T10:49:32.186Z,288.24
2019-04-06T10:51:01.643Z,288.27
2019-04-06T10:52:30.364Z,288.17
2019-04-06T10:53:59.430Z,288.25
2019-04-06T10:55:28.205Z,288.3
2019-04-06T10:56:57.244Z,288.42
2019-04-06T10:58:26.005Z,288.55
2019-04-06T11:00:06.922Z,288.55
2019-04-06T11:01:35.649Z,288.71
2019-04-06T11:03:04.363Z,288.85
2019-04-06T11:04:36.021Z,288.94
2019-04-06T11:06:05.254Z,289.02
2019-04-06T11:07:34.128Z,289.15
2019-04-06T11:09:03.335Z,289.19
2019-04-06T11:10:32.311Z,289.05
2019-04-06T11:12:01.174Z,289.19
2019-04-06T11:13:30.568Z,289.25
2019-04-06T11:14:59.499Z,289.23
2019-04-06T11:16:28.382Z,289.07
2019-04-06T11:17:57.103Z,289.05
2019-04-06T11:19:25.818Z,289.15
2019-04-06T11:20:56.591Z,289.32
2019-04-06T11:22:25.522Z,289.4
2019-04-06T11:23:55.184Z,289.42
2019-04-06T11:25:23.984Z,289.44
2019-04-06T11:26:52.704Z,289.44
2019-04-06T11:28:21.425Z,289.52
2019-04-06T11:29:50.467Z,289.56
2019-04-06T11:31:19.266Z,289.61
2019-04-06T11:32:47.989Z,289.62
2019-04-06T11:34:17.590Z,289.69
2019-04-06T11:35:47.265Z,289.82
2019-04-06T11:37:16.041Z,289.83
2019-04-06T11:38:44.870Z,289.87
2019-04-06T11:40:13.710Z,289.9
2019-04-06T11:41:43.450Z,289.9
2019-04-06T11:43:12.630Z,289.98
2019-04-06T11:44:43.268Z,290
2019-04-06T11:46:13.104Z,290.09
2019-04-06T11:47:42.945Z,290.05
2019-04-06T11:49:13.024Z,289.93
2019-04-06T11:50:41.743Z,289.98
2019-04-06T11:52:10.466Z,290.12
2019-04-06T11:53:39.185Z,290.09
2019-04-06T11:55:08.707Z,290.08
2019-04-06T11:56:38.254Z,290.17
2019-04-06T11:58:08.225Z,290.22
2019-04-06T11:59:37.671Z,290.21
2019-04-06T12:01:06.627Z,290.2
2019-04-06T12:02:36.306Z,290.05
2019-04-06T12:04:05.885Z,290.15
2019-04-06T12:05:35.026Z,290.26
2019-04-06T12:07:05.907Z,290.33
2019-04-06T12:08:34.840Z,290.34
2019-04-06T12:10:03.840Z,290.44
2019-04-06T12:11:32.752Z,290.51
2019-04-06T12:13:02.473Z,290.57
2019-04-06T12:14:32.225Z,290.64
2019-04-06T12:16:01.244Z,290.62
2019-04-06T12:17:31.145Z,290.61
2019-04-06T12:18:59.984Z,290.63
2019-04-06T12:20:29.422Z,290.69
2019-04-06T12:21:58.386Z,290.87
2019-04-06T12:23:27.391Z,290.94
2019-04-06T12:24:56.227Z,290.97
2019-04-06T12:26:25.586Z,291.06
2019-04-06T12:27:54.708Z,290.99
2019-04-06T12:29:23.425Z,291.11
2019-04-06T12:30:52.145Z,291.25
2019-04-06T12:32:21.263Z,291.23
2019-04-06T12:33:50.385Z,291.16
2019-04-06T12:35:20.303Z,291.18
2019-04-06T12:36:49.151Z,291.07
2019-04-06T12:38:18.144Z,291.1
2019-04-06T12:39:57.775Z,291.13
2019-04-06T12:41:26.624Z,291.06
2019-04-06T12:42:55.755Z,291.14
2019-04-06T12:44:24.871Z,291.24
2019-04-06T12:45:54.545Z,291.43
2019-04-06T12:47:23.368Z,291.43
2019-04-06T12:48:53.519Z,291.35
2019-04-06T12:50:22.685Z,291.47
2019-04-06T12:51:51.757Z,291.65
2019-04-06T12:53:20.860Z,291.85
2019-04-06T12:54:49.825Z,292.01
2019-04-06T12:56:18.702Z,292.21
2019-04-06T12:57:47.584Z,292.3
2019-04-06T12:59:17.368Z,292.4
2019-04-06T13:00:57.584Z,292.13
2019-04-06T13:02:26.307Z,291.74
2019-04-06T13:03:55.902Z,291.66
2019-04-06T13:05:26.463Z,291.56
2019-04-06T13:06:56.143Z,291.49
2019-04-06T13:08:25.868Z,291.47
2019-04-06T13:09:54.941Z,291.44
2019-04-06T13:11:24.942Z,291.33
2019-04-06T13:12:54.221Z,291.08
2019-04-06T13:14:23.342Z,291.05
2019-04-06T13:15:52.426Z,291.2
2019-04-06T13:17:21.579Z,291.18
2019-04-06T13:18:51.265Z,291.09
2019-04-06T13:20:20.864Z,290.94
2019-04-06T13:21:50.942Z,290.87
2019-04-06T13:23:19.986Z,290.8
2019-04-06T13:24:49.113Z,290.77
2019-04-06T13:26:17.983Z,290.83
2019-04-06T13:27:49.436Z,290.74
2019-04-06T13:29:19.013Z,290.7
2019-04-06T13:31:01.125Z,290.71
2019-04-06T13:32:33.665Z,290.64
2019-04-06T13:34:02.544Z,290.54
2019-04-06T13:35:32.469Z,290.47
2019-04-06T13:37:01.271Z,290.49
2019-04-06T13:38:30.146Z,290.51
2019-04-06T13:39:58.948Z,290.44
2019-04-06T13:41:27.905Z,290.38
2019-04-06T13:42:56.625Z,290.3
2019-04-06T13:44:25.913Z,290.33
2019-04-06T13:45:56.227Z,290.37
2019-04-06T13:47:24.946Z,290.38
2019-04-06T13:48:53.906Z,290.42
2019-04-06T13:50:23.027Z,290.79
2019-04-06T13:51:51.751Z,290.84
2019-04-06T13:53:20.788Z,290.79
2019-04-06T13:54:49.642Z,290.78
2019-04-06T13:56:19.490Z,290.8
2019-04-06T13:57:48.548Z,290.85
2019-04-06T13:59:18.226Z,290.9
2019-04-06T14:00:47.758Z,290.95
2019-04-06T14:02:16.623Z,291.34
2019-04-06T14:03:45.540Z,291.62
2019-04-06T14:05:15.623Z,291.55
2019-04-06T14:06:45.262Z,291.46
2019-04-06T14:08:14.313Z,291.74
2019-04-06T14:09:43.182Z,292.01
2019-04-06T14:11:12.072Z,292.02
2019-04-06T14:12:40.869Z,291.87
2019-04-06T14:14:09.582Z,291.72
2019-04-06T14:15:39.273Z,291.56
2019-04-06T14:17:08.221Z,291.52
2019-04-06T14:18:39.657Z,291.38
2019-04-06T14:20:09.127Z,291.25
2019-04-06T14:21:38.141Z,291.21
2019-04-06T14:23:08.465Z,291.21
2019-04-06T14:24:39.903Z,291.16
2019-04-06T14:26:08.980Z,291.08
2019-04-06T14:27:39.017Z,291.05
2019-04-06T14:29:07.822Z,291.01
2019-04-06T14:30:36.881Z,290.92
2019-04-06T14:32:06.637Z,290.92
2019-04-06T14:33:36.139Z,290.9
2019-04-06T14:35:07.045Z,291.15
2019-04-06T14:36:36.247Z,291.13
2019-04-06T14:38:06.381Z,291.05
2019-04-06T14:39:39.388Z,291.1
2019-04-06T14:41:10.621Z,291.11
2019-04-06T14:42:39.464Z,291.01
2019-04-06T14:44:08.224Z,291
2019-04-06T14:45:37.264Z,290.86
2019-04-06T14:47:06.206Z,290.71
2019-04-06T14:48:35.023Z,290.61
2019-04-06T14:50:04.785Z,290.52
2019-04-06T14:51:34.145Z,290.48
2019-04-06T14:53:03.601Z,290.6
2019-04-06T14:54:33.902Z,290.64
2019-04-06T14:56:02.963Z,290.7
2019-04-06T14:57:32.229Z,290.99
2019-04-06T14:59:01.515Z,291.17
2019-04-06T15:00:30.386Z,291.45
2019-04-06T15:02:04.311Z,291.3
2019-04-06T15:03:33.382Z,291.17
2019-04-06T15:05:03.663Z,291.05
2019-04-06T15:06:32.522Z,290.92
2019-04-06T15:08:02.336Z,290.86
2019-04-06T15:09:32.155Z,291.1
2019-04-06T15:11:01.968Z,291.26
2019-04-06T15:12:30.950Z,291.16
2019-04-06T15:14:00.223Z,291.11
2019-04-06T15:15:30.950Z,291.32
2019-04-06T15:16:59.824Z,291.46
2019-04-06T15:18:29.055Z,291.47
2019-04-06T15:19:59.983Z,291.22
2019-04-06T15:21:29.006Z,291.11
2019-04-06T15:22:57.823Z,291.08
2019-04-06T15:24:26.543Z,291.2
2019-04-06T15:25:56.933Z,291.17
2019-04-06T15:27:27.127Z,291.12
2019-04-06T15:28:56.221Z,291.26
2019-04-06T15:30:25.984Z,291.51
2019-04-06T15:31:56.704Z,291.69
2019-04-06T15:33:25.914Z,291.85
2019-04-06T15:34:55.142Z,291.95
2019-04-06T15:36:26.252Z,292.07
2019-04-06T15:37:55.184Z,292.16
2019-04-06T15:39:23.986Z,291.99
2019-04-06T15:40:52.702Z,291.82
2019-04-06T15:42:21.742Z,291.68
2019-04-06T15:43:50.623Z,291.42
2019-04-06T15:45:20.144Z,291.21
2019-04-06T15:46:48.862Z,291.07
2019-04-06T15:48:18.940Z,291.01
2019-04-06T15:49:47.980Z,290.96
2019-04-06T15:51:17.111Z,290.89
2019-04-06T15:52:46.061Z,290.77
2019-04-06T15:54:15.504Z,290.69
2019-04-06T15:55:45.281Z,290.63
2019-04-06T15:57:15.024Z,290.64
2019-04-06T15:58:44.622Z,290.59
2019-04-06T16:00:13.351Z,290.54
2019-04-06T16:01:42.300Z,290.46
2019-04-06T16:03:12.423Z,290.45
2019-04-06T16:04:41.582Z,290.36
2019-04-06T16:06:11.189Z,290.33
2019-04-06T16:07:40.221Z,290.29
2019-04-06T16:09:09.741Z,290.23
2019-04-06T16:10:38.542Z,290.21
2019-04-06T16:12:07.929Z,290.19
2019-04-06T16:13:37.181Z,290.18
2019-04-06T16:15:06.346Z,290.12
2019-04-06T16:16:35.503Z,290.08
2019-04-06T16:18:04.462Z,290.09
2019-04-06T16:19:33.182Z,290.06
2019-04-06T16:21:04.622Z,290.02
2019-04-06T16:22:33.772Z,289.98
2019-04-06T16:24:08.942Z,289.96
2019-04-06T16:25:37.743Z,289.94
2019-04-06T16:27:09.517Z,289.94
2019-04-06T16:28:39.341Z,289.95
2019-04-06T16:30:08.948Z,289.97
2019-04-06T16:31:38.964Z,289.98
2019-04-06T16:33:08.938Z,289.98
2019-04-06T16:34:39.714Z,289.95
2019-04-06T16:36:09.683Z,289.92
2019-04-06T16:37:39.110Z,289.89
2019-04-06T16:39:07.904Z,289.86
2019-04-06T16:40:36.683Z,289.83
2019-04-06T16:42:05.981Z,289.8
2019-04-06T16:43:37.262Z,289.79
2019-04-06T16:45:06.254Z,289.79
2019-04-06T16:46:36.894Z,289.79
2019-04-06T16:48:05.744Z,289.77
2019-04-06T16:49:34.558Z,289.73
2019-04-06T16:51:04.991Z,289.65
2019-04-06T16:52:33.825Z,289.59
2019-04-06T16:54:02.993Z,289.54
2019-04-06T16:55:31.904Z,289.52
2019-04-06T16:57:00.947Z,289.52
2019-04-06T16:58:30.484Z,289.52
2019-04-06T16:59:59.770Z,289.5
2019-04-06T17:01:28.713Z,289.48
2019-04-06T17:02:59.263Z,289.47
2019-04-06T17:04:28.013Z,289.47
2019-04-06T17:05:57.125Z,289.47
2019-04-06T17:07:26.465Z,289.47
2019-04-06T17:08:56.543Z,289.46
2019-04-06T17:10:27.022Z,289.42
2019-04-06T17:11:56.307Z,289.39
2019-04-06T17:13:25.100Z,289.37
2019-04-06T17:14:54.302Z,289.35
2019-04-06T17:16:23.024Z,289.33
2019-04-06T17:17:52.231Z,289.31
2019-04-06T17:19:21.666Z,289.26
2019-04-06T17:20:50.389Z,289.22
2019-04-06T17:22:19.262Z,289.17
2019-04-06T17:23:50.627Z,289.16
2019-04-06T17:25:20.305Z,289.15
2019-04-06T17:26:49.206Z,289.13
2019-04-06T17:28:18.062Z,289.09
2019-04-06T17:29:47.107Z,289.07
2019-04-06T17:31:16.242Z,289.02
2019-04-06T17:32:45.101Z,289
2019-04-06T17:34:14.181Z,288.99
2019-04-06T17:35:43.490Z,288.98
2019-04-06T17:37:12.703Z,288.94
2019-04-06T17:38:42.870Z,288.92
2019-04-06T17:40:12.183Z,288.9
2019-04-06T17:41:41.029Z,288.93
2019-04-06T17:43:11.828Z,288.9
2019-04-06T17:44:40.942Z,288.83
2019-04-06T17:46:09.666Z,288.81
2019-04-06T17:47:38.719Z,288.81
2019-04-06T17:49:07.758Z,288.77
2019-04-06T17:50:36.542Z,288.72
2019-04-06T17:52:06.252Z,288.69
2019-04-06T17:53:35.368Z,288.66
2019-04-06T17:55:06.140Z,288.59
2019-04-06T17:56:35.200Z,288.57
2019-04-06T17:58:04.671Z,288.56
2019-04-06T17:59:33.662Z,288.56
2019-04-06T18:01:02.807Z,288.5
2019-04-06T18:02:33.373Z,288.5
2019-04-06T18:04:06.872Z,288.46
2019-04-06T18:06:41.732Z,288.38
2019-04-06T18:08:11.190Z,288.3
2019-04-06T18:09:40.310Z,288.28
2019-04-06T18:11:09.105Z,288.28
2019-04-06T18:12:38.229Z,288.23
2019-04-06T18:14:07.105Z,288.17
2019-04-06T18:15:36.871Z,288.14
2019-04-06T18:17:06.147Z,288.11
2019-04-06T18:18:35.586Z,288.11
2019-04-06T18:20:05.507Z,288.04
2019-04-06T18:21:34.547Z,287.97
2019-04-06T18:23:05.425Z,287.9
2019-04-06T18:24:35.186Z,287.85
2019-04-06T18:26:03.905Z,287.79
2019-04-06T18:27:32.895Z,287.78
2019-04-06T18:29:01.779Z,287.8
2019-04-06T18:30:31.601Z,287.75
2019-04-06T18:32:00.403Z,287.69
2019-04-06T18:33:30.075Z,287.64
2019-04-06T18:34:59.287Z,287.61
2019-04-06T18:36:30.866Z,287.55
2019-04-06T18:37:59.663Z,287.49
2019-04-06T18:39:28.462Z,287.39
2019-04-06T18:40:58.706Z,287.23
2019-04-06T18:42:27.991Z,287.12
2019-04-06T18:43:56.849Z,286.98
2019-04-06T18:45:26.543Z,286.89
2019-04-06T18:46:56.582Z,286.74
2019-04-06T18:48:27.354Z,286.61
2019-04-06T18:49:57.296Z,286.4
2019-04-06T18:51:26.144Z,286.26
2019-04-06T18:52:54.873Z,286.15
2019-04-06T18:54:23.586Z,285.97
2019-04-06T18:55:52.576Z,285.77
2019-04-06T18:57:22.305Z,285.66
2019-04-06T18:58:52.851Z,285.64
2019-04-06T19:00:22.784Z,285.72
2019-04-06T19:01:51.589Z,285.68
2019-04-06T19:03:22.557Z,285.47
2019-04-06T19:04:52.986Z,285.34
2019-04-06T19:06:21.900Z,285.32
2019-04-06T19:07:50.623Z,285.3
2019-04-06T19:09:28.116Z,285.18
2019-04-06T19:11:01.244Z,285.21
2019-04-06T19:12:31.328Z,285.13
2019-04-06T19:14:00.545Z,285.02
2019-04-06T19:15:29.551Z,284.98
2019-04-06T19:16:59.582Z,284.88
2019-04-06T19:18:28.943Z,284.75
2019-04-06T19:19:58.861Z,284.59
2019-04-06T19:21:30.247Z,284.4
2019-04-06T19:22:59.745Z,284.26
2019-04-06T19:24:28.467Z,284.14
2019-04-06T19:25:58.476Z,284.15
2019-04-06T19:27:27.843Z,284.09
2019-04-06T19:28:58.065Z,283.98
2019-04-06T19:30:27.039Z,284.05
2019-04-06T19:31:58.321Z,283.98
2019-04-06T19:33:30.624Z,283.84
2019-04-06T19:34:59.522Z,283.78
2019-04-06T19:36:30.271Z,283.85
2019-04-06T19:37:59.603Z,283.88
2019-04-06T19:39:29.042Z,283.75
2019-04-06T19:40:58.601Z,283.6
2019-04-06T19:42:28.538Z,283.79
2019-04-06T19:43:58.150Z,283.72
2019-04-06T19:45:28.462Z,283.68
2019-04-06T19:46:58.617Z,283.48
2019-04-06T19:48:27.422Z,283.33
2019-04-06T19:49:58.258Z,283.3
2019-04-06T19:51:27.195Z,283.25
2019-04-06T19:52:57.480Z,283.26
2019-04-06T19:54:26.831Z,283.19
2019-04-06T19:55:56.350Z,283.12
2019-04-06T19:57:26.034Z,283.09
2019-04-06T19:58:56.255Z,283.08
2019-04-06T20:00:27.422Z,283.16
2019-04-06T20:01:57.403Z,283.07